Latest Weather Observations for Point Stuart

IDD60901

Issued at 12:51 pm CST Thursday 2 April 2015 (issued every 10 minutes, with the page automatically refreshed every 10 minutes)

About weather observations | Map of Darwin area stations | Latest observations for Darwin area | Other Formats
Station Details ID: 014254 Name: POINT STUART Lat: -12.24 Lon: 131.88 Height: 1.0 m
Data from the previous 72 hours. | See also: Recent months for locations in Northern Territory
Date/Time
CST
Tmp

°C
App
Tmp
°C
Dew
Point
°C
Rel
Hum
%
Delta-T

°C
Wind Press
QNH
hPa
Press
MSL
hPa
Rain
since
9 am
mm
Dir
 
Spd
km/h
Gust
km/h
Spd
kts
Gust
kts
02/12:30pm 32.4 36.9 23.9 61 5.9 NE 7 15 4 8 1008.7 - 0.0
02/12:00pm 31.8 36.1 23.3 60 5.9 E 6 11 3 6 1009.3 1009.3 0.0
02/11:30am 32.2 36.3 23.2 59 6.2 NE 7 13 4 7 1009.6 - 0.0
02/11:00am 31.4 36.1 24.0 65 5.1 E 6 11 3 6 1010.1 - 0.0
02/10:30am 31.4 36.6 24.8 68 4.6 ENE 6 13 3 7 1010.2 - 0.0
02/10:00am 30.6 35.0 23.5 66 4.9 E 6 9 3 5 1010.3 - 0.0
02/09:30am 30.1 33.4 22.5 63 5.2 E 9 13 5 7 1010.2 - 0.0
02/09:00am 29.6 33.7 23.3 69 4.3 ENE 7 11 4 6 1009.8 1009.8 0.0
02/08:30am 28.1 33.0 24.7 82 2.4 SE 7 11 4 6 1009.9 - 0.0
02/08:00am 26.9 32.8 26.7 99 0.1 SE 9 11 5 6 1009.6 - 0.0
02/07:30am 25.9 32.9 25.9 100 0.0 CALM 0 0 0 0 1009.1 - 0.0
02/07:00am 25.4 31.7 25.4 100 0.0 SSE 2 7 1 4 1008.8 - 0.0
02/06:30am 25.5 30.9 25.5 100 0.0 S 7 7 4 4 1008.9 - 0.0
02/06:00am 25.5 31.5 25.5 100 0.0 SSE 4 7 2 4 1008.6 1008.6 0.0
02/05:30am 25.3 30.6 25.3 100 0.0 ESE 7 9 4 5 1008.3 - 0.0
02/05:00am 25.8 32.4 25.8 100 0.0 ESE 2 9 1 5 1008.1 - 0.0
02/04:30am 26.1 33.3 26.1 100 0.0 CALM 0 0 0 0 1007.9 - 0.0
02/04:00am 25.7 32.5 25.5 99 0.1 CALM 0 0 0 0 1008.1 - 0.0
02/03:30am 25.9 32.3 24.9 94 0.7 CALM 0 0 0 0 1008.2 - 0.0
02/03:00am 26.6 33.6 25.9 96 0.5 CALM 0 0 0 0 1008.4 1008.4 0.0
02/02:30am 26.9 33.8 25.7 93 0.8 CALM 0 0 0 0 1008.4 - 0.0
02/02:00am 27.2 34.3 26.0 93 0.8 CALM 0 0 0 0 1008.7 - 0.0
02/01:30am 27.3 33.6 24.7 86 1.8 CALM 0 0 0 0 1009.1 - 0.0
02/01:00am 28.2 33.0 24.2 79 2.8 E 6 13 3 7 1009.6 - 0.0
02/12:30am 28.8 31.9 24.8 79 2.8 ENE 17 24 9 13 1010.2 - 0.0
02/12:00am 29.0 32.8 24.1 75 3.4 NE 11 17 6 9 1010.5 1010.5 0.0
 
Date/Time
CST
Tmp

°C
App
Tmp
°C
Dew
Point
°C
Rel
Hum
%
Delta-T

°C
Wind Press
QNH
hPa
Press
MSL
hPa
Rain
since
9 am
mm
Dir
 
Spd
km/h
Gust
km/h
Spd
kts
Gust
kts
01/11:30pm 28.5 33.7 25.7 85 2.0 NNE 9 15 5 8 1010.6 - 0.0
01/11:00pm 28.6 32.8 25.4 83 2.3 NNE 13 22 7 12 1010.4 - 0.0
01/10:30pm 28.7 32.5 24.7 79 2.8 NNE 13 20 7 11 1010.3 - 0.0
01/10:00pm 28.6 32.8 24.8 80 2.7 NNE 11 17 6 9 1010.1 - 0.0
01/09:30pm 28.9 32.3 24.0 75 3.4 NNE 13 20 7 11 1009.8 - 0.0
01/09:00pm 29.1 32.6 23.5 72 3.9 NNE 11 20 6 11 1009.3 1009.3 0.0
01/08:30pm 28.8 33.4 24.8 79 2.8 N 9 17 5 9 1008.8 - 0.0
01/08:00pm 28.4 32.8 24.4 79 2.8 N 9 11 5 6 1008.8 - 0.0
01/07:30pm 28.2 32.1 23.6 76 3.2 NNE 9 11 5 6 1008.4 - 0.0
01/07:00pm 28.7 32.3 23.1 71 3.8 NNE 9 11 5 6 1008.2 - 0.0
01/06:30pm 29.7 33.4 23.2 68 4.5 NNE 9 13 5 7 1007.6 - 0.0
01/06:00pm 30.5 34.3 23.4 66 4.9 NNE 9 13 5 7 1007.5 1007.5 0.0
01/05:30pm 31.4 35.2 23.5 63 5.5 N 9 15 5 8 1007.6 - 0.0
01/05:00pm 31.7 35.2 23.5 62 5.7 NNE 11 17 6 9 1007.7 - 0.0
01/04:30pm 32.1 35.8 23.3 59 6.1 N 9 15 5 8 1007.7 - 0.0
01/04:00pm 31.8 35.1 22.5 58 6.4 N 9 17 5 9 1007.8 - 0.0
01/03:30pm 32.6 36.2 23.8 59 6.1 N 11 17 6 9 1008.0 - 0.0
01/03:00pm 31.7 35.8 24.0 63 5.4 N 9 15 5 8 1008.2 1008.2 0.0
01/02:30pm 31.7 35.7 23.8 63 5.5 N 9 15 5 8 1008.5 - 0.0
01/02:00pm 32.9 37.8 24.6 61 5.8 NNE 7 13 4 7 1008.8 - 0.0
01/01:30pm 32.2 36.5 24.3 63 5.5 NNE 9 17 5 9 1009.3 - 0.0
01/01:00pm 32.1 36.1 24.4 63 5.4 NNE 11 17 6 9 1010.0 - 0.0
01/12:30pm 32.2 36.9 25.0 65 5.1 NNE 9 17 5 9 1010.5 - 0.0
01/12:00pm 32.1 35.6 23.6 60 5.9 NNE 11 17 6 9 1011.0 1011.0 0.0
01/11:30am 31.7 35.8 24.0 63 5.4 NNE 9 15 5 8 1011.5 - 0.0
01/11:00am 31.6 35.0 23.4 61 5.7 ENE 11 17 6 9 1012.0 - 0.0
01/10:30am 31.3 35.0 22.3 58 6.1 ENE 6 11 3 6 1012.4 - 0.0
01/10:00am 30.6 36.5 25.4 74 3.7 S 4 7 2 4 1012.4 - 0.0
01/09:30am 29.8 37.7 27.2 86 1.9 CALM 0 6 0 3 1012.5 - 0.0
01/09:00am 28.9 36.3 28.4 97 0.4 SSW 7 9 4 5 1012.3 1012.3 0.0
01/08:30am 28.1 36.7 28.1 100 0.0 CALM 0 0 0 0 1012.1 - 0.0
01/08:00am 27.1 34.2 27.1 100 0.0 S 4 7 2 4 1011.9 - 0.0
01/07:30am 26.0 32.3 26.0 100 0.0 S 4 6 2 3 1011.5 - 0.0
01/07:00am 25.9 32.6 25.9 100 0.0 S 2 6 1 3 1011.1 - 0.0
01/06:30am 26.0 32.0 26.0 100 0.0 S 6 9 3 5 1010.9 - 0.0
01/06:00am 25.9 31.8 25.9 100 0.0 S 6 7 3 4 1010.7 1010.7 0.0
01/05:30am 26.0 31.8 26.0 100 0.0 S 7 9 4 5 1010.5 - 0.0
01/05:00am 26.3 32.8 26.3 100 0.0 SSE 4 6 2 3 1010.3 - 0.0
01/04:30am 26.9 34.2 26.9 100 0.0 ESE 2 6 1 3 1010.3 - 0.0
01/04:00am 26.4 33.4 26.4 100 0.0 NNE 2 6 1 3 1010.2 - 0.0
01/03:30am 26.3 33.6 26.3 100 0.0 CALM 0 0 0 0 1010.1 - 0.0
01/03:00am 26.6 34.1 26.6 100 0.0 CALM 0 6 0 3 1010.1 1010.1 0.0
01/02:30am 26.5 32.8 26.5 100 0.0 NNE 6 9 3 5 1010.4 - 0.0
01/02:00am 26.4 32.4 26.1 98 0.2 N 6 7 3 4 1010.5 - 0.0
01/01:30am 26.6 32.6 26.1 97 0.4 NNE 6 7 3 4 1010.9 - 0.0
01/01:00am 26.6 32.4 25.7 95 0.6 NNE 6 7 3 4 1011.2 - 0.0
01/12:30am 26.9 32.7 25.7 93 0.8 NNE 6 9 3 5 1011.4 - 0.0
01/12:00am 26.7 32.3 25.7 94 0.7 NNE 7 9 4 5 1011.5 1011.5 0.0
 
Date/Time
CST
Tmp

°C
App
Tmp
°C
Dew
Point
°C
Rel
Hum
%
Delta-T

°C
Wind Press
QNH
hPa
Press
MSL
hPa
Rain
since
9 am
mm
Dir
 
Spd
km/h
Gust
km/h
Spd
kts
Gust
kts
31/11:30pm 26.8 32.2 25.2 91 1.1 N 6 7 3 4 1011.5 - 0.0
31/11:00pm 26.8 32.6 25.8 94 0.7 N 6 9 3 5 1011.6 - 0.0
31/10:30pm 26.8 33.0 25.2 91 1.1 N 2 6 1 3 1011.4 - 0.0
31/10:00pm 26.8 33.6 25.6 93 0.8 CALM 0 4 0 2 1011.4 - 0.0
31/09:30pm 26.7 32.3 25.5 93 0.8 NW 6 9 3 5 1011.1 - 0.0
31/09:00pm 26.8 33.6 25.6 93 0.8 CALM 0 0 0 0 1011.0 1011.0 0.0
31/08:30pm 27.3 33.9 25.3 89 1.4 CALM 0 0 0 0 1010.6 - 0.0
31/08:00pm 27.2 32.3 24.6 86 1.8 NW 6 7 3 4 1010.3 - 0.0
31/07:30pm 27.5 33.0 24.1 82 2.3 NNW 2 6 1 3 1010.0 - 0.0
31/07:00pm 28.0 34.0 24.2 80 2.6 CALM 0 0 0 0 1009.8 - 0.0
31/06:30pm 29.0 34.8 23.9 74 3.5 CALM 0 0 0 0 1009.7 - 0.0
31/06:00pm 29.3 35.1 24.0 73 3.7 CALM 0 0 0 0 1009.6 1009.6 0.0
31/05:30pm 30.3 36.6 24.7 72 3.9 CALM 0 0 0 0 1009.4 - 0.0
31/05:00pm 30.4 36.2 24.5 70 4.1 NNE 2 6 1 3 1009.3 - 0.0
31/04:30pm 30.7 35.8 24.1 68 4.6 NNE 4 9 2 5 1009.2 - 0.0
31/04:00pm 31.4 35.0 23.8 64 5.3 NNE 11 15 6 8 1009.1 - 0.0
31/03:30pm 31.2 35.4 24.1 66 4.9 NE 9 15 5 8 1009.2 - 0.0
31/03:00pm 31.7 35.8 24.6 66 5.0 NE 11 15 6 8 1009.4 1009.4 0.0
31/02:30pm 31.8 36.0 24.7 66 5.0 NNE 11 20 6 11 1009.7 - 0.0
31/02:00pm 31.5 35.1 24.4 66 5.0 NE 13 20 7 11 1010.3 - 0.0
31/01:30pm 31.4 34.0 24.0 65 5.1 NE 17 24 9 13 1010.7 - 0.0
31/01:00pm 30.5 32.7 23.2 65 5.0 NE 17 26 9 14 1011.2 - 0.0
31/12:30pm 31.5 35.0 24.9 68 4.6 NE 15 22 8 12 1011.7 - 0.0
31/12:00pm 31.5 34.7 24.4 66 5.0 NE 15 24 8 13 1012.2 1012.2 0.0
31/11:30am 30.9 33.8 23.8 66 4.9 ENE 15 22 8 12 1012.4 - 0.0
31/11:00am 30.8 32.4 22.9 62 5.4 E 19 26 10 14 1012.5 - 0.0
31/10:30am 30.4 32.2 23.6 67 4.7 E 20 30 11 16 1012.6 - 0.0
31/10:00am 30.1 32.3 24.0 70 4.2 E 19 26 10 14 1012.9 - 0.0
31/09:30am 29.5 32.0 24.4 74 3.6 ESE 19 26 10 14 1013.1 - 0.0
31/09:00am 28.9 31.6 24.2 76 3.3 ESE 17 24 9 13 1013.2 1013.2 0.0
31/08:30am 27.9 32.3 25.7 88 1.6 ESE 13 20 7 11 1013.1 - 0.0
31/08:00am 26.4 31.0 25.4 94 0.7 ESE 11 13 6 7 1013.0 - 0.0
31/07:30am 25.4 29.3 24.2 93 0.8 ESE 11 13 6 7 1012.8 - 0.0
31/07:00am 25.5 28.7 23.7 90 1.2 ESE 13 17 7 9 1012.2 - 0.0
31/06:30am 25.9 29.0 23.6 87 1.6 ESE 13 17 7 9 1011.9 - 0.0
31/06:00am 25.8 29.9 24.6 93 0.8 E 11 13 6 7 1011.6 1011.6 0.0
31/05:30am 25.5 29.6 24.6 95 0.6 ESE 11 13 6 7 1011.3 - 0.0
31/05:00am 25.4 29.8 25.1 98 0.2 ESE 11 13 6 7 1011.1 - 0.0
31/04:30am 25.6 29.8 25.3 98 0.2 SE 13 15 7 8 1010.8 - 0.0
31/04:00am 26.0 30.4 25.1 95 0.6 ESE 11 15 6 8 1010.7 - 0.0
31/03:30am 26.3 31.1 25.1 93 0.8 ESE 9 13 5 7 1010.7 - 0.0
31/03:00am 26.7 31.6 25.3 92 1.0 ESE 9 11 5 6 1010.7 1010.7 0.0
31/02:30am 27.0 32.1 25.6 92 1.0 SE 9 13 5 7 1010.9 - 0.0
31/02:00am 27.3 32.6 25.9 92 1.0 SSE 9 11 5 6 1011.1 - 0.0
31/01:30am 27.4 33.2 25.8 91 1.1 ESE 6 7 3 4 1011.4 - 0.0
31/01:00am 27.7 33.7 25.5 88 1.5 ESE 4 6 2 3 1011.7 - 0.0
31/12:30am 28.5 31.9 25.3 83 2.2 ENE 17 24 9 13 1012.2 - 0.0
31/12:00am 28.3 32.6 25.5 85 2.0 NE 13 19 7 10 1012.5 1012.5 0.0
 
Date/Time
CST
Tmp

°C
App
Tmp
°C
Dew
Point
°C
Rel
Hum
%
Delta-T

°C
Wind Press
QNH
hPa
Press
MSL
hPa
Rain
since
9 am
mm
Dir
 
Spd
km/h
Gust
km/h
Spd
kts
Gust
kts
30/11:30pm 27.8 32.8 26.0 90 1.3 N 11 17 6 9 1012.7 - 0.0
30/11:00pm 26.7 31.8 24.9 90 1.3 N 7 9 4 5 1012.7 - 0.0
30/10:30pm 26.9 31.8 24.7 88 1.5 N 7 9 4 5 1012.6 - 0.0
30/10:00pm 27.1 32.3 25.1 89 1.4 N 7 9 4 5 1012.4 - 0.0
30/09:30pm 27.4 31.9 24.0 82 2.3 N 7 9 4 5 1012.1 - 0.0
30/09:00pm 27.2 31.4 23.4 80 2.6 N 7 9 4 5 1012.0 1012.0 0.0
30/08:30pm 27.2 31.2 22.8 77 3.0 N 6 7 3 4 1011.8 - 0.0
30/08:00pm 27.8 31.9 23.0 75 3.3 N 6 7 3 4 1011.5 - 0.0
30/07:00pm 28.4 32.3 22.6 71 3.9 N 6 9 3 5 1011.0 - 0.0
30/06:30pm 29.4 33.5 22.9 68 4.4 NNE 6 9 3 5 1010.8 - 0.0
30/06:00pm 30.3 34.2 23.0 65 5.0 NNE 7 11 4 6 1010.7 1010.7 0.0
30/05:30pm 30.8 34.3 22.9 62 5.4 NNE 9 15 5 8 1010.4 - 0.0
30/05:00pm 31.3 34.5 23.1 61 5.6 NNE 11 17 6 9 1010.3 - 0.0
30/04:30pm 31.5 34.1 23.3 61 5.7 NE 15 20 8 11 1010.2 - 0.0
30/04:00pm 31.1 33.0 22.7 61 5.7 NE 17 24 9 13 1010.2 - 0.0
30/03:30pm 31.3 32.7 22.6 60 5.9 NE 19 24 10 13 1010.4 - 0.0
30/03:00pm 31.5 33.1 22.8 60 6.0 NE 19 26 10 14 1010.5 1010.5 0.0
30/02:30pm 31.4 33.2 23.5 63 5.5 NE 20 30 11 16 1010.8 - 0.0
30/02:00pm 31.5 33.5 23.9 64 5.3 NE 20 30 11 16 1010.9 - 0.0
30/01:30pm 31.3 33.3 23.9 64 5.1 NE 20 26 11 14 1011.0 - 0.0
30/01:00pm 31.1 33.2 23.7 64 5.1 ENE 19 30 10 16 1011.3 - 0.0

Latest Capital City Observations: Canberra | Sydney | Melbourne | Brisbane | Adelaide | Perth | Hobart | Darwin

Other Formats:

Comma delimited format used in spreadsheet applications
http://www.bom.gov.au/fwo/IDD60901/IDD60901.94127.axf

JavaScript Object Notation format (JSON) in row-major order
http://www.bom.gov.au/fwo/IDD60901/IDD60901.94127.json